Time;durP1;ratioP1;P1;durP2;ratioP2;P2;SDS_P1;SDS_P2;PMS_P1;PMS_P2;Temp;Humidity;BMP_temperature;BMP_pressure;BME280_temperature;BME280_humidity;BME280_pressure;Samples;Min_cycle;Max_cycle;Signal;HPM_P1;HPM_P2
2022/07/03 00:00:22;;;;;;;4.73;1.93;;;12.00;99.90;;;;;;5057239;28;20751;-74
2022/07/03 00:02:49;;;;;;;4.83;1.70;;;11.90;99.90;;;;;;5080811;28;20298;-75
2022/07/03 00:05:16;;;;;;;3.87;1.80;;;12.00;99.90;;;;;;5072735;28;20813;-75
2022/07/03 00:07:43;;;;;;;5.77;1.60;;;12.00;99.90;;;;;;5073046;28;20310;-74
2022/07/03 00:10:10;;;;;;;6.03;1.83;;;12.00;99.90;;;;;;5079332;28;20373;-74
2022/07/03 00:12:37;;;;;;;6.20;1.90;;;11.90;99.90;;;;;;5069049;28;20287;-75
2022/07/03 00:15:07;;;;;;;3.03;1.67;;;11.90;99.90;;;;;;5052643;28;20234;-74
2022/07/03 00:17:35;;;;;;;6.50;1.80;;;11.90;99.90;;;;;;5071300;28;20736;-74
2022/07/03 00:20:02;;;;;;;4.30;2.13;;;11.90;99.90;;;;;;5075160;28;20234;-75
2022/07/03 00:22:34;;;;;;;6.97;2.00;;;11.90;99.90;;;;;;5073147;28;20234;-75
2022/07/03 00:25:04;;;;;;;4.23;1.73;;;11.90;99.90;;;;;;5072635;28;20198;-74
2022/07/03 00:27:33;;;;;;;4.33;2.03;;;11.90;99.90;;;;;;5068826;28;20290;-74
2022/07/03 00:30:01;;;;;;;4.23;1.90;;;11.90;99.90;;;;;;5069021;28;20289;-75
2022/07/03 00:32:30;;;;;;;4.33;1.90;;;11.80;99.90;;;;;;5090453;28;20198;-75
2022/07/03 00:34:58;;;;;;;5.70;2.20;;;11.80;99.90;;;;;;5069331;28;20637;-74
2022/07/03 00:37:26;;;;;;;6.73;2.10;;;11.80;99.90;;;;;;5082835;28;20195;-74
2022/07/03 00:39:53;;;;;;;4.87;2.30;;;11.70;99.90;;;;;;5069561;28;20284;-75
2022/07/03 00:42:21;;;;;;;4.57;1.90;;;11.80;99.90;;;;;;5092161;28;20259;-74
2022/07/03 00:44:50;;;;;;;4.77;2.30;;;11.70;99.90;;;;;;5071752;28;20281;-75
2022/07/03 00:47:18;;;;;;;4.77;2.27;;;11.70;99.90;;;;;;5058970;28;20281;-74
2022/07/03 00:49:51;;;;;;;7.00;2.40;;;11.60;99.90;;;;;;5057165;28;20854;-75
2022/07/03 00:52:19;;;;;;;4.43;2.00;;;11.60;99.90;;;;;;5062059;28;20321;-75
2022/07/03 00:54:52;;;;;;;5.80;2.13;;;11.60;99.90;;;;;;5071300;28;20205;-75
2022/07/03 00:57:21;;;;;;;4.27;2.20;;;11.50;99.90;;;;;;5065887;28;20687;-75
2022/07/03 00:59:48;;;;;;;5.60;2.20;;;11.50;99.90;;;;;;5071218;28;20623;-74
2022/07/03 01:02:28;;;;;;;4.10;2.50;;;11.50;99.90;;;;;;5072238;28;20289;-74
2022/07/03 01:05:07;;;;;;;6.57;2.47;;;11.50;99.90;;;;;;5053318;28;20676;-75
2022/07/03 01:07:46;;;;;;;5.77;2.27;;;11.40;99.90;;;;;;5055905;28;20740;-74
2022/07/03 01:10:23;;;;;;;4.43;2.40;;;11.40;99.90;;;;;;5064930;28;20625;-74
2022/07/03 01:13:01;;;;;;;8.83;2.70;;;11.40;99.90;;;;;;5071793;28;20254;-75
2022/07/03 01:15:40;;;;;;;6.43;2.80;;;11.30;99.90;;;;;;5072365;28;20206;-74
2022/07/03 01:18:21;;;;;;;5.90;2.87;;;11.40;99.90;;;;;;5072133;28;20202;-75
2022/07/03 01:20:54;;;;;;;6.17;2.60;;;11.30;99.90;;;;;;5076464;28;20262;-74
2022/07/03 01:23:33;;;;;;;5.30;2.77;;;11.30;99.90;;;;;;5081303;28;20682;-74
2022/07/03 01:26:05;;;;;;;6.80;3.10;;;11.20;99.90;;;;;;5073744;28;20202;-75
2022/07/03 01:28:36;;;;;;;5.67;2.87;;;11.10;99.90;;;;;;5076646;28;20233;-75
2022/07/03 01:31:03;;;;;;;5.93;2.57;;;11.10;99.90;;;;;;5057116;28;20633;-75
2022/07/03 01:33:34;;;;;;;5.97;2.70;;;11.00;99.90;;;;;;5054955;28;20202;-74
2022/07/03 01:36:06;;;;;;;4.63;2.90;;;11.00;99.90;;;;;;5067473;28;20655;-74
2022/07/03 01:38:36;;;;;;;5.83;2.30;;;10.90;99.90;;;;;;5055414;28;20615;-74
2022/07/03 01:41:06;;;;;;;4.93;2.70;;;10.90;99.90;;;;;;5085739;28;20691;-74
2022/07/03 01:43:34;;;;;;;4.63;2.80;;;10.80;99.90;;;;;;5092573;28;20205;-74
2022/07/03 01:46:03;;;;;;;7.17;2.50;;;10.80;99.90;;;;;;5055449;28;20202;-75
2022/07/03 01:48:33;;;;;;;6.47;2.47;;;10.80;99.90;;;;;;5055029;28;20230;-74
2022/07/03 01:51:01;;;;;;;6.57;2.40;;;10.80;99.90;;;;;;5054788;28;20281;-74
2022/07/03 01:53:30;;;;;;;3.43;2.00;;;10.60;99.90;;;;;;5054756;28;20249;-75
2022/07/03 01:55:58;;;;;;;2.83;1.77;;;10.50;99.90;;;;;;5071953;28;20307;-74
2022/07/03 01:58:27;;;;;;;4.50;2.00;;;10.30;99.90;;;;;;5073890;28;20233;-74
2022/07/03 02:01:03;;;;;;;3.17;1.90;;;10.20;99.90;;;;;;5088780;28;20210;-75
2022/07/03 02:03:32;;;;;;;3.60;2.03;;;10.10;99.90;;;;;;5074901;28;20202;-74
2022/07/03 02:06:06;;;;;;;3.47;2.20;;;10.10;99.90;;;;;;5073565;28;20634;-74
2022/07/03 02:08:40;;;;;;;4.70;2.20;;;10.00;99.90;;;;;;5073921;28;20217;-74
2022/07/03 02:11:14;;;;;;;6.07;2.50;;;10.00;99.90;;;;;;5074682;28;20233;-74
2022/07/03 02:13:51;;;;;;;7.73;2.70;;;10.00;99.90;;;;;;5054709;28;20205;-74
2022/07/03 02:16:20;;;;;;;4.87;2.57;;;10.00;99.90;;;;;;5078481;28;20195;-74
2022/07/03 02:18:55;;;;;;;7.03;2.43;;;9.90;99.90;;;;;;5074827;28;20230;-74
2022/07/03 02:21:25;;;;;;;3.90;2.70;;;9.90;99.90;;;;;;5078737;28;20233;-74
2022/07/03 02:24:03;;;;;;;4.97;2.40;;;9.70;99.90;;;;;;5091973;28;20291;-74
2022/07/03 02:26:34;;;;;;;3.50;2.53;;;9.70;99.90;;;;;;5074148;28;20242;-74
2022/07/03 02:29:05;;;;;;;5.47;2.73;;;9.60;99.90;;;;;;5073976;28;20227;-75
2022/07/03 02:31:40;;;;;;;4.27;2.30;;;9.60;99.90;;;;;;5058272;28;20659;-74
2022/07/03 02:34:08;;;;;;;4.53;2.67;;;9.70;99.90;;;;;;5086612;28;20199;-74
2022/07/03 02:36:37;;;;;;;4.00;2.47;;;9.60;99.90;;;;;;5092598;28;20294;-74
2022/07/03 02:39:09;;;;;;;5.93;2.63;;;9.60;99.90;;;;;;5085168;28;20203;-75
2022/07/03 02:41:45;;;;;;;4.77;2.27;;;9.50;99.90;;;;;;5054171;28;20242;-75
2022/07/03 02:44:24;;;;;;;3.00;1.83;;;9.50;99.90;;;;;;5074007;28;20219;-74
2022/07/03 02:46:58;;;;;;;4.70;2.20;;;9.60;99.90;;;;;;5075022;28;20307;-74
2022/07/03 02:49:44;;;;;;;3.13;2.00;;;9.50;99.90;;;;;;5073588;28;20625;-74
2022/07/03 02:52:22;;;;;;;3.53;1.80;;;9.50;99.90;;;;;;5055519;28;20263;-74
2022/07/03 02:54:52;;;;;;;3.60;1.93;;;9.50;99.90;;;;;;5063438;28;20277;-74
2022/07/03 02:57:20;;;;;;;2.90;1.93;;;9.50;99.90;;;;;;5091412;28;20301;-74
2022/07/03 02:59:54;;;;;;;3.20;2.00;;;9.40;99.90;;;;;;5084915;28;20243;-74
2022/07/03 03:02:36;;;;;;;3.97;2.00;;;9.50;99.90;;;;;;5077533;28;20255;-75
2022/07/03 03:05:07;;;;;;;2.80;1.97;;;9.40;99.90;;;;;;5054783;28;20279;-74
2022/07/03 03:07:36;;;;;;;4.43;2.10;;;9.30;99.90;;;;;;5081708;28;20290;-75
2022/07/03 03:10:04;;;;;;;4.30;1.90;;;9.20;99.90;;;;;;5075337;28;20266;-74
2022/07/03 03:12:32;;;;;;;2.47;1.90;;;9.10;99.90;;;;;;5053522;28;20437;-74
2022/07/03 03:15:05;;;;;;;2.80;1.80;;;9.10;99.90;;;;;;5066964;28;20235;-74
2022/07/03 03:17:43;;;;;;;2.63;1.90;;;9.10;99.90;;;;;;5057673;28;20236;-74
2022/07/03 03:20:18;;;;;;;3.73;2.10;;;9.20;99.90;;;;;;5073370;28;20241;-75
2022/07/03 03:23:11;;;;;;;2.20;1.90;;;9.20;99.90;;;;;;5072401;28;20225;-74
2022/07/03 03:25:38;;;;;;;4.63;2.30;;;9.20;99.90;;;;;;5068378;28;20215;-74
2022/07/03 03:28:05;;;;;;;3.30;2.00;;;9.20;99.90;;;;;;5083156;28;20294;-74
2022/07/03 03:30:36;;;;;;;2.43;2.17;;;9.10;99.90;;;;;;5066572;28;20310;-74
2022/07/03 03:33:04;;;;;;;3.10;2.07;;;8.90;99.90;;;;;;5076274;28;20242;-74
2022/07/03 03:35:31;;;;;;;3.23;2.30;;;8.80;99.90;;;;;;5077075;28;20235;-74
2022/07/03 03:37:58;;;;;;;3.10;2.63;;;8.80;99.90;;;;;;5060309;28;20294;-74
2022/07/03 03:40:25;;;;;;;3.10;2.03;;;8.80;99.90;;;;;;5061054;28;20283;-74
2022/07/03 03:42:51;;;;;;;2.43;2.00;;;8.80;99.90;;;;;;5072847;28;20293;-74
2022/07/03 03:45:19;;;;;;;2.27;1.90;;;8.70;99.90;;;;;;5072216;28;20242;-74
2022/07/03 03:47:47;;;;;;;3.23;2.10;;;8.70;99.90;;;;;;5072925;28;20230;-74
2022/07/03 03:50:14;;;;;;;3.77;2.40;;;8.70;99.90;;;;;;5059641;28;20275;-74
2022/07/03 03:52:42;;;;;;;3.53;2.23;;;8.70;99.90;;;;;;5082973;28;20233;-74
2022/07/03 03:55:10;;;;;;;5.03;2.67;;;8.70;99.90;;;;;;5092428;28;20230;-74
2022/07/03 03:57:37;;;;;;;3.83;2.30;;;8.70;99.90;;;;;;5089351;28;20675;-74
2022/07/03 04:00:05;;;;;;;3.40;2.73;;;8.60;99.90;;;;;;5065389;28;20209;-74
2022/07/03 04:02:32;;;;;;;5.40;2.63;;;8.60;99.90;;;;;;5067353;28;20198;-75
2022/07/03 04:05:01;;;;;;;4.03;2.50;;;8.60;99.90;;;;;;5076693;28;20222;-74
2022/07/03 04:07:28;;;;;;;3.40;2.57;;;8.60;99.90;;;;;;5052848;28;20710;-75
2022/07/03 04:09:55;;;;;;;3.50;2.70;;;8.60;99.90;;;;;;5052400;28;20289;-75
2022/07/03 04:12:21;;;;;;;2.70;2.37;;;8.60;99.90;;;;;;5068062;28;20298;-74
2022/07/03 04:14:48;;;;;;;3.67;1.97;;;8.60;99.90;;;;;;5064378;28;20619;-74
2022/07/03 04:17:16;;;;;;;3.00;2.20;;;8.50;99.90;;;;;;5052651;28;20293;-74
2022/07/03 04:19:42;;;;;;;3.13;2.03;;;8.50;99.90;;;;;;5051978;28;20230;-74
2022/07/03 04:22:11;;;;;;;3.47;2.50;;;8.50;99.90;;;;;;5061036;28;20297;-74
2022/07/03 04:24:38;;;;;;;3.37;2.87;;;8.50;99.90;;;;;;5067311;28;20238;-74
2022/07/03 04:27:05;;;;;;;4.83;2.80;;;8.50;99.90;;;;;;5068223;28;20285;-74
2022/07/03 04:29:32;;;;;;;3.67;2.70;;;8.40;99.90;;;;;;5076929;28;20195;-74
2022/07/03 04:31:59;;;;;;;3.30;2.57;;;8.30;99.90;;;;;;5065192;28;20229;-74
2022/07/03 04:34:26;;;;;;;2.83;2.30;;;8.20;99.90;;;;;;5072091;28;20324;-74
2022/07/03 04:36:53;;;;;;;4.17;2.90;;;8.20;99.90;;;;;;5057580;28;20231;-74
2022/07/03 04:39:21;;;;;;;3.73;2.60;;;8.20;99.90;;;;;;5072278;28;20257;-74
2022/07/03 04:41:48;;;;;;;3.80;2.53;;;8.20;99.90;;;;;;5072251;28;20209;-74
2022/07/03 04:44:15;;;;;;;4.03;2.77;;;8.10;99.90;;;;;;5071939;28;20227;-74
2022/07/03 04:46:42;;;;;;;3.40;2.80;;;8.10;99.90;;;;;;5072041;28;20210;-74
2022/07/03 04:49:09;;;;;;;4.50;2.60;;;8.10;99.90;;;;;;5071806;28;20724;-75
2022/07/03 04:51:36;;;;;;;3.07;2.50;;;8.10;99.90;;;;;;5053805;28;20349;-74
2022/07/03 04:54:03;;;;;;;3.30;2.30;;;8.10;99.90;;;;;;5059916;28;20202;-74
2022/07/03 04:56:31;;;;;;;2.90;2.10;;;8.10;99.90;;;;;;5083666;28;20284;-74
2022/07/03 04:58:58;;;;;;;2.80;2.50;;;8.20;99.90;;;;;;5063387;28;20630;-74
2022/07/03 05:01:25;;;;;;;2.60;2.20;;;8.20;99.90;;;;;;5069631;28;20291;-74
2022/07/03 05:03:52;;;;;;;3.63;2.50;;;8.20;99.90;;;;;;5072680;28;20240;-74
2022/07/03 05:06:19;;;;;;;4.20;2.70;;;8.30;99.90;;;;;;5088295;28;20270;-74
2022/07/03 05:08:46;;;;;;;3.70;2.73;;;8.50;99.90;;;;;;5075417;28;20254;-75
2022/07/03 05:11:13;;;;;;;3.10;2.67;;;8.60;99.90;;;;;;5094587;28;20245;-74
2022/07/03 05:13:41;;;;;;;3.00;2.70;;;8.70;99.90;;;;;;5075654;28;20592;-74
2022/07/03 05:16:08;;;;;;;4.37;2.40;;;8.90;99.90;;;;;;5075425;28;20202;-75
2022/07/03 05:18:35;;;;;;;2.97;2.37;;;8.90;99.90;;;;;;5063370;28;20317;-74
2022/07/03 05:21:02;;;;;;;4.60;2.40;;;9.00;99.90;;;;;;5055061;28;20269;-74
2022/07/03 05:23:29;;;;;;;3.00;2.30;;;9.20;99.90;;;;;;5067982;28;20765;-74
2022/07/03 05:25:58;;;;;;;3.00;2.20;;;9.30;99.90;;;;;;5095931;28;20285;-74
2022/07/03 05:28:25;;;;;;;4.70;2.40;;;9.60;99.90;;;;;;5064102;28;20264;-74
2022/07/03 05:30:53;;;;;;;6.90;2.57;;;9.90;99.90;;;;;;5067683;28;20313;-74
2022/07/03 05:33:20;;;;;;;5.60;2.77;;;10.40;99.90;;;;;;5082287;28;20209;-74
2022/07/03 05:35:47;;;;;;;7.10;2.60;;;11.60;99.90;;;;;;5074217;28;20306;-74
2022/07/03 05:39:31;;;;;;;5.70;2.40;;;12.60;99.90;;;;;;5075783;28;20241;-74
2022/07/03 05:41:00;;;;;;;6.17;2.00;;;13.50;99.90;;;;;;5056109;28;20258;-75
2022/07/03 05:43:30;;;;;;;4.30;2.00;;;14.30;99.90;;;;;;5063561;28;20274;-75
2022/07/03 05:45:58;;;;;;;3.73;1.80;;;15.10;99.90;;;;;;5075358;28;20203;-74
2022/07/03 05:48:25;;;;;;;4.80;1.80;;;15.80;99.90;;;;;;5075205;28;20282;-74
2022/07/03 05:50:52;;;;;;;3.10;1.53;;;16.40;99.90;;;;;;5074441;28;20785;-74
2022/07/03 05:53:19;;;;;;;4.87;1.57;;;17.10;99.90;;;;;;5080402;28;20563;-74
2022/07/03 05:55:46;;;;;;;4.07;1.43;;;17.50;99.90;;;;;;5073526;28;20282;-75
2022/07/03 05:58:13;;;;;;;3.47;1.60;;;18.30;99.90;;;;;;5066854;28;20295;-74
2022/07/03 06:00:40;;;;;;;2.73;1.30;;;18.70;99.90;;;;;;5068194;28;20239;-75
2022/07/03 06:03:08;;;;;;;4.77;1.60;;;19.10;99.90;;;;;;5074764;28;20286;-75
2022/07/03 06:05:35;;;;;;;3.50;1.70;;;19.40;99.90;;;;;;5074014;28;20227;-75
2022/07/03 06:08:03;;;;;;;4.63;1.48;;;19.90;99.90;;;;;;5054447;28;20290;-75
2022/07/03 06:10:30;;;;;;;3.35;1.60;;;20.10;99.90;;;;;;5074669;28;20237;-75
2022/07/03 06:12:57;;;;;;;6.40;1.20;;;20.70;99.90;;;;;;5074858;28;20234;-75
2022/07/03 06:15:24;;;;;;;3.92;1.58;;;20.90;99.90;;;;;;5073442;28;20238;-75
2022/07/03 06:17:51;;;;;;;3.38;1.58;;;21.00;99.90;;;;;;5079644;28;20278;-75
2022/07/03 06:20:20;;;;;;;3.13;1.13;;;20.90;99.90;;;;;;5054894;28;20319;-75
2022/07/03 06:22:47;;;;;;;6.68;1.20;;;21.00;99.90;;;;;;5062108;28;20204;-74
2022/07/03 06:25:14;;;;;;;4.28;1.40;;;20.80;99.90;;;;;;5073085;28;20234;-75
2022/07/03 06:27:42;;;;;;;3.42;1.13;;;21.10;99.90;;;;;;5057315;28;20235;-75
2022/07/03 06:30:10;;;;;;;4.50;1.30;;;21.80;99.90;;;;;;5060453;28;20207;-74
2022/07/03 06:32:37;;;;;;;2.67;0.98;;;22.00;99.90;;;;;;5074095;28;20639;-75
2022/07/03 06:35:05;;;;;;;2.53;1.17;;;21.90;99.90;;;;;;5073990;28;20285;-75
2022/07/03 06:37:33;;;;;;;4.10;1.30;;;22.00;99.90;;;;;;5078423;28;20211;-75
2022/07/03 06:40:00;;;;;;;3.28;1.20;;;22.70;99.90;;;;;;5073825;28;20663;-75
2022/07/03 06:42:27;;;;;;;2.95;1.10;;;22.70;99.90;;;;;;5079873;28;20293;-76
2022/07/03 06:44:54;;;;;;;1.98;0.85;;;22.60;99.90;;;;;;5072441;28;20293;-76
2022/07/03 06:47:21;;;;;;;3.85;0.88;;;22.70;99.90;;;;;;5073380;28;20725;-76
2022/07/03 06:49:48;;;;;;;4.53;1.10;;;23.00;99.90;;;;;;5068953;28;20249;-75
2022/07/03 06:52:14;;;;;;;5.18;1.05;;;23.40;99.90;;;;;;5073096;28;20645;-75
2022/07/03 06:54:44;;;;;;;2.40;0.85;;;23.50;99.90;;;;;;5073125;28;20252;-74
2022/07/03 06:57:11;;;;;;;2.70;0.80;;;23.60;99.90;;;;;;5058814;28;20203;-74
2022/07/03 06:59:38;;;;;;;2.92;1.08;;;23.50;99.90;;;;;;5055902;28;20234;-75
2022/07/03 07:02:06;;;;;;;4.00;0.82;;;23.60;99.90;;;;;;5072511;28;20324;-75
2022/07/03 07:04:33;;;;;;;3.00;1.00;;;24.60;99.90;;;;;;5068578;28;20206;-75
2022/07/03 07:07:00;;;;;;;2.75;1.00;;;25.00;99.90;;;;;;5093775;28;20289;-75
2022/07/03 07:09:27;;;;;;;4.25;0.90;;;24.90;99.90;;;;;;5082411;28;20302;-75
2022/07/03 07:11:55;;;;;;;3.78;0.95;;;25.00;99.90;;;;;;5035397;28;20290;-75
2022/07/03 07:14:22;;;;;;;4.95;1.00;;;25.20;99.90;;;;;;5062223;28;20221;-75
2022/07/03 07:16:49;;;;;;;2.70;0.75;;;25.10;99.90;;;;;;5067316;28;21006;-75
2022/07/03 07:19:16;;;;;;;4.15;0.90;;;24.70;99.90;;;;;;5064491;28;20223;-75
2022/07/03 07:21:43;;;;;;;4.18;1.00;;;24.90;99.90;;;;;;5051701;28;20314;-75
2022/07/03 07:24:10;;;;;;;2.10;0.90;;;;;;;;;;5051534;28;20214;-75
2022/07/03 07:26:37;;;;;;;4.38;0.82;;;;;;;;;;5052499;28;20607;-73
2022/07/03 07:29:06;;;;;;;1.90;0.88;;;;;;;;;;5084017;28;20705;-75
2022/07/03 07:31:33;;;;;;;3.40;0.70;;;25.50;99.90;;;;;;5080906;28;20317;-72
2022/07/03 07:34:04;;;;;;;3.15;0.70;;;25.10;99.90;;;;;;5071020;28;20290;-74
2022/07/03 07:36:31;;;;;;;2.38;0.80;;;25.50;99.90;;;;;;5072161;28;20712;-74
2022/07/03 07:38:58;;;;;;;3.55;0.80;;;25.20;99.90;;;;;;5066147;28;20234;-73
2022/07/03 07:41:24;;;;;;;2.25;0.82;;;25.40;99.90;;;;;;5063625;28;20302;-73
2022/07/03 07:43:51;;;;;;;2.60;0.80;;;25.30;99.90;;;;;;5061527;28;20315;-73
2022/07/03 07:46:20;;;;;;;2.20;0.80;;;25.50;99.90;;;;;;5073417;28;20341;-74
2022/07/03 07:48:46;;;;;;;3.33;0.70;;;24.60;99.90;;;;;;5062997;28;20282;-74
2022/07/03 07:51:13;;;;;;;3.72;1.08;;;22.80;99.90;;;;;;5061831;28;20350;-73
2022/07/03 07:53:40;;;;;;;2.75;0.60;;;24.20;99.90;;;;;;5065022;28;20230;-74
2022/07/03 07:56:07;;;;;;;2.63;0.63;;;25.30;99.90;;;;;;5040615;28;20211;-75
2022/07/03 07:58:34;;;;;;;2.67;0.80;;;26.00;99.90;;;;;;5066683;28;20241;-75
2022/07/03 08:06:31;;;;;;;3.40;0.82;;;26.80;99.90;;;;;;5071638;28;20760;-75
2022/07/03 08:08:58;;;;;;;1.92;0.68;;;24.80;99.90;;;;;;5070898;28;20642;-75
2022/07/03 08:11:25;;;;;;;2.80;0.63;;;24.90;99.90;;;;;;5071274;28;20227;-75
2022/07/03 08:13:52;;;;;;;2.28;0.80;;;25.80;99.90;;;;;;5071024;28;20682;-75
2022/07/03 08:16:19;;;;;;;3.75;0.60;;;26.90;99.90;;;;;;5070421;28;20234;-75
2022/07/03 08:18:47;;;;;;;2.22;0.70;;;27.50;92.70;;;;;;5066966;28;20235;-75
2022/07/03 08:21:14;;;;;;;2.65;0.60;;;26.40;82.20;;;;;;5050979;28;20239;-75
2022/07/03 08:23:41;;;;;;;1.17;0.47;;;26.00;86.90;;;;;;5063316;28;20288;-75
2022/07/03 08:26:08;;;;;;;1.13;0.40;;;26.50;79.20;;;;;;5072418;28;20199;-75
2022/07/03 08:28:34;;;;;;;3.03;0.60;;;27.00;66.40;;;;;;5072058;28;20285;-75
2022/07/03 08:31:01;;;;;;;4.07;0.77;;;27.60;61.20;;;;;;5071829;28;20274;-75
2022/07/03 08:33:28;;;;;;;1.33;0.60;;;28.40;45.20;;;;;;5072308;28;20670;-74
2022/07/03 08:35:57;;;;;;;2.65;0.70;;;28.50;36.00;;;;;;5071834;28;20227;-75
2022/07/03 08:38:29;;;;;;;1.60;0.60;;;26.50;46.20;;;;;;5071483;28;20235;-75
2022/07/03 08:40:59;;;;;;;3.35;0.52;;;27.40;49.70;;;;;;5071621;28;20225;-75
2022/07/03 08:43:25;;;;;;;2.17;0.70;;;28.00;53.40;;;;;;5071708;28;20289;-74
2022/07/03 08:45:54;;;;;;;3.05;0.60;;;28.80;25.60;;;;;;5071719;28;20291;-75
2022/07/03 08:48:22;;;;;;;1.75;0.50;;;27.30;39.90;;;;;;5072237;28;20286;-74
2022/07/03 08:50:52;;;;;;;2.03;0.60;;;26.00;59.20;;;;;;5071600;28;20239;-75
2022/07/03 08:53:20;;;;;;;1.35;0.50;;;24.10;75.10;;;;;;5072135;28;20194;-74
2022/07/03 08:55:48;;;;;;;2.60;0.60;;;23.70;94.40;;;;;;5071951;28;20282;-75
2022/07/03 08:58:16;;;;;;;2.25;0.60;;;25.30;82.80;;;;;;5058504;28;20270;-74
2022/07/03 09:00:44;;;;;;;2.85;0.80;;;26.00;70.90;;;;;;5054872;28;20706;-75
2022/07/03 09:03:12;;;;;;;3.70;0.70;;;27.60;55.10;;;;;;5091863;28;20285;-74
2022/07/03 09:05:40;;;;;;;3.22;0.68;;;26.70;54.80;;;;;;5073832;28;20286;-75
2022/07/03 09:08:11;;;;;;;4.88;0.50;;;26.80;59.50;;;;;;5077623;28;20277;-75
2022/07/03 09:10:39;;;;;;;3.30;0.80;;;26.70;52.30;;;;;;5092294;28;20294;-74
2022/07/03 09:13:06;;;;;;;3.17;0.80;;;25.60;71.30;;;;;;5091467;28;20203;-75
2022/07/03 09:15:33;;;;;;;1.83;0.80;;;24.60;84.90;;;;;;5092203;28;20287;-74
2022/07/03 09:18:02;;;;;;;3.13;0.85;;;25.80;90.00;;;;;;5091716;28;20663;-75
2022/07/03 09:20:34;;;;;;;1.83;0.65;;;27.40;66.20;;;;;;5091999;28;20309;-75
2022/07/03 09:23:13;;;;;;;1.65;0.50;;;27.90;36.10;;;;;;5091946;28;20281;-75
2022/07/03 09:26:07;;;;;;;2.30;0.55;;;26.60;44.20;;;;;;5091924;28;20226;-75
2022/07/03 09:28:51;;;;;;;1.30;0.57;;;25.10;63.50;;;;;;5091537;28;20202;-74
2022/07/03 09:31:19;;;;;;;2.55;0.57;;;26.80;60.80;;;;;;5091700;28;20195;-74
2022/07/03 09:34:00;;;;;;;2.55;0.70;;;27.70;41.30;;;;;;5092144;28;20305;-75
2022/07/03 09:36:42;;;;;;;2.55;0.60;;;26.60;47.00;;;;;;5091481;28;20190;-74
2022/07/03 09:39:17;;;;;;;2.05;0.68;;;26.70;70.90;;;;;;5091926;28;20214;-75
2022/07/03 09:42:00;;;;;;;1.58;0.77;;;28.10;23.40;;;;;;5091274;28;20735;-75
2022/07/03 09:44:34;;;;;;;1.80;0.55;;;25.90;48.50;;;;;;5091490;28;20753;-74
2022/07/03 09:47:09;;;;;;;1.67;0.47;;;25.80;67.10;;;;;;5091926;28;20286;-74
2022/07/03 09:49:49;;;;;;;2.65;0.50;;;25.00;74.70;;;;;;5094167;28;20229;-74
2022/07/03 09:52:28;;;;;;;4.25;0.75;;;24.20;91.60;;;;;;5094920;28;20230;-74
2022/07/03 09:54:56;;;;;;;1.42;0.40;;;24.00;98.10;;;;;;5095276;28;20195;-74
2022/07/03 09:57:25;;;;;;;1.50;0.50;;;26.10;82.80;;;;;;5094602;28;20230;-75
2022/07/03 10:00:13;;;;;;;2.67;0.90;;;28.60;46.70;;;;;;5079611;28;20625;-75
2022/07/03 10:02:54;;;;;;;2.92;0.50;;;30.00;18.20;;;;;;5074668;28;20306;-74
2022/07/03 10:05:22;;;;;;;2.80;0.80;;;29.50;10.00;;;;;;5074632;28;20226;-75
2022/07/03 10:07:54;;;;;;;1.02;0.55;;;28.20;24.10;;;;;;5074762;28;20195;-75
2022/07/03 10:10:22;;;;;;;1.70;0.50;;;29.30;18.60;;;;;;5074109;28;20241;-75
2022/07/03 10:12:53;;;;;;;1.38;0.50;;;30.80;13.80;;;;;;5074120;28;20290;-74
2022/07/03 10:15:21;;;;;;;2.25;0.60;;;29.60;16.20;;;;;;5074250;28;20230;-75
2022/07/03 10:17:52;;;;;;;1.42;0.52;;;29.00;8.40;;;;;;5074219;28;20643;-75
2022/07/03 10:20:27;;;;;;;1.30;0.47;;;26.70;36.30;;;;;;5074555;28;20234;-74
2022/07/03 10:22:55;;;;;;;2.03;0.70;;;26.30;55.30;;;;;;5074511;28;20282;-74
2022/07/03 10:25:23;;;;;;;1.80;0.70;;;26.10;58.90;;;;;;5074053;28;20243;-74
2022/07/03 10:27:51;;;;;;;1.50;0.63;;;25.90;68.40;;;;;;5074274;28;20195;-75
2022/07/03 10:30:20;;;;;;;0.93;0.52;;;27.60;54.60;;;;;;5074441;28;20729;-75
2022/07/03 10:32:48;;;;;;;2.38;0.60;;;26.40;49.60;;;;;;5074182;28;20226;-75
2022/07/03 10:35:19;;;;;;;1.17;0.60;;;27.90;45.20;;;;;;5074118;28;20199;-75
2022/07/03 10:38:04;;;;;;;1.75;0.80;;;29.50;26.20;;;;;;5073804;28;20223;-75
2022/07/03 10:46:23;;;;;;;1.80;0.68;;;29.30;1.00;;;;;;5060654;28;20207;-76
2022/07/03 10:48:58;;;;;;;1.48;0.50;;;26.80;35.80;;;;;;5073532;28;20226;-76
2022/07/03 10:51:26;;;;;;;2.50;1.13;;;25.60;66.50;;;;;;5073027;28;20729;-76
2022/07/03 10:54:18;;;;;;;2.45;0.60;;;25.20;72.30;;;;;;5073000;28;20282;-75
2022/07/03 10:57:09;;;;;;;2.80;0.60;;;25.20;74.40;;;;;;5075651;28;20453;-77
2022/07/03 11:00:13;;;;;;;1.38;0.40;;;28.00;40.80;;;;;;5054291;28;20643;-78
2022/07/03 11:02:41;;;;;;;2.13;0.57;;;26.30;42.10;;;;;;5074054;28;20670;-79
2022/07/03 11:05:18;;;;;;;2.08;1.15;;;25.90;65.10;;;;;;5074573;28;20290;-79
2022/07/03 11:08:15;;;;;;;1.13;0.65;;;24.80;71.80;;;;;;5074427;28;20203;-79
2022/07/03 11:10:43;;;;;;;1.27;0.50;;;25.50;86.30;;;;;;5075075;28;20206;-79
2022/07/03 11:13:15;;;;;;;1.20;0.43;;;26.40;67.20;;;;;;5073202;28;20195;-79
2022/07/03 11:15:45;;;;;;;1.35;0.50;;;26.80;60.60;;;;;;5074742;28;20203;-79
2022/07/03 11:18:18;;;;;;;1.08;0.50;;;27.60;46.20;;;;;;5074471;28;20222;-79
2022/07/03 11:21:17;;;;;;;2.17;0.60;;;27.10;46.10;;;;;;5077373;28;20238;-79
2022/07/03 11:24:03;;;;;;;1.52;0.52;;;28.50;34.80;;;;;;5061678;28;20681;-79
2022/07/03 11:26:30;;;;;;;1.05;0.50;;;31.30;1.00;;;;;;5073501;28;20716;-79
2022/07/03 11:28:57;;;;;;;1.35;0.50;;;33.80;1.00;;;;;;5074671;28;20230;-79
2022/07/03 11:31:25;;;;;;;1.98;0.68;;;32.60;1.00;;;;;;5073466;28;20237;-79
2022/07/03 11:33:59;;;;;;;1.48;0.60;;;29.20;1.00;;;;;;5075220;28;20568;-79
2022/07/03 11:36:26;;;;;;;2.63;1.77;;;27.50;26.90;;;;;;5073751;28;20254;-79
2022/07/03 11:39:05;;;;;;;2.85;1.70;;;26.50;62.60;;;;;;5077532;28;20682;-79
2022/07/03 11:41:43;;;;;;;3.35;3.05;;;25.90;63.50;;;;;;5072672;28;20258;-79
2022/07/03 11:44:15;;;;;;;1.63;0.70;;;24.70;78.90;;;;;;5074034;28;20235;-79
2022/07/03 11:46:48;;;;;;;16.35;12.48;;;23.80;91.50;;;;;;5073458;28;20221;-79
2022/07/03 11:49:17;;;;;;;6.53;4.30;;;24.10;93.20;;;;;;5072695;28;20728;-79
2022/07/03 11:51:55;;;;;;;2.97;1.52;;;24.20;94.50;;;;;;5073308;28;20269;-79
2022/07/03 11:54:22;;;;;;;1.95;0.80;;;25.10;79.20;;;;;;5074070;28;20195;-79
2022/07/03 11:56:48;;;;;;;1.60;0.55;;;25.50;72.30;;;;;;5073223;28;20297;-79
2022/07/03 11:59:15;;;;;;;2.80;1.48;;;24.30;71.70;;;;;;5075516;28;20238;-79
2022/07/03 12:01:44;;;;;;;4.18;2.10;;;24.50;78.70;;;;;;5072986;28;20262;-79
2022/07/03 12:04:13;;;;;;;1.50;0.90;;;23.90;92.70;;;;;;5073132;28;20252;-79
2022/07/03 12:06:42;;;;;;;2.78;0.60;;;24.20;91.30;;;;;;5072895;28;20562;-79
2022/07/03 12:09:18;;;;;;;1.42;0.60;;;24.70;77.80;;;;;;5072572;28;20207;-79
2022/07/03 12:12:03;;;;;;;3.40;0.60;;;24.80;70.80;;;;;;5075653;28;20203;-79
2022/07/03 12:14:42;;;;;;;1.23;0.40;;;24.90;75.40;;;;;;5072402;28;20675;-79
2022/07/03 12:17:12;;;;;;;2.55;0.70;;;25.10;75.40;;;;;;5072692;28;20238;-79
2022/07/03 12:19:45;;;;;;;2.03;0.70;;;27.80;50.10;;;;;;5072876;28;20231;-79
2022/07/03 12:22:12;;;;;;;1.38;0.52;;;28.90;23.60;;;;;;5073977;28;20223;-79
2022/07/03 12:24:39;;;;;;;1.00;0.40;;;27.90;21.50;;;;;;5072457;28;20198;-79
2022/07/03 12:27:06;;;;;;;2.08;0.50;;;27.10;32.00;;;;;;5072693;28;20674;-79
2022/07/03 12:29:34;;;;;;;1.35;0.52;;;25.80;53.40;;;;;;5072238;28;20234;-78
2022/07/03 12:32:01;;;;;;;1.77;0.60;;;24.10;88.00;;;;;;5072957;28;20566;-78
2022/07/03 12:34:30;;;;;;;2.03;0.40;;;23.40;97.40;;;;;;5072585;28;20333;-78
2022/07/03 12:36:58;;;;;;;1.42;0.45;;;23.70;95.20;;;;;;5072704;28;20266;-78
2022/07/03 12:39:40;;;;;;;1.05;0.43;;;23.90;94.00;;;;;;5072459;28;20757;-78
2022/07/03 12:42:18;;;;;;;1.20;0.50;;;23.60;99.20;;;;;;5072608;28;20219;-78
2022/07/03 12:44:57;;;;;;;2.25;0.50;;;23.40;98.50;;;;;;5072750;28;20285;-78
2022/07/03 12:47:24;;;;;;;0.82;0.50;;;24.60;94.60;;;;;;5072330;28;20202;-78
2022/07/03 12:49:58;;;;;;;0.82;0.40;;;25.70;87.60;;;;;;5071826;28;20230;-78
2022/07/03 12:52:25;;;;;;;1.58;0.52;;;27.20;54.40;;;;;;5072763;28;20198;-78
2022/07/03 12:54:53;;;;;;;0.68;0.30;;;27.50;44.90;;;;;;5072046;28;20558;-79
2022/07/03 13:00:10;;;;;;;1.20;0.38;;;27.00;53.90;;;;;;5059735;28;20198;-79
2022/07/03 13:02:38;;;;;;;2.47;0.40;;;27.00;47.30;;;;;;5051538;28;20226;-78
2022/07/03 13:05:17;;;;;;;0.82;0.40;;;26.50;51.50;;;;;;5052149;28;20333;-78
2022/07/03 13:07:46;;;;;;;2.45;0.68;;;26.30;58.80;;;;;;5051573;28;20276;-78
2022/07/03 13:10:15;;;;;;;1.60;0.55;;;25.60;71.00;;;;;;5052166;28;20238;-78
2022/07/03 13:12:50;;;;;;;1.27;0.60;;;26.30;72.50;;;;;;5052022;28;20235;-78
2022/07/03 13:15:19;;;;;;;1.05;0.30;;;26.10;67.40;;;;;;5052196;28;20203;-79
2022/07/03 13:18:02;;;;;;;1.75;0.50;;;27.30;54.00;;;;;;5051878;28;20207;-78
2022/07/03 13:20:31;;;;;;;1.25;0.40;;;27.30;45.70;;;;;;5051458;28;20691;-79